sensor_id;sensor_type;location;lat;lon;timestamp;pressure;altitude;pressure_sealevel;temperature;humidity
56568;BME280;42456;49.956;20.004;2023-02-22T00:00:53;98267.45;;;5.19;74.50
56568;BME280;42456;49.956;20.004;2023-02-22T00:03:27;98270.56;;;5.18;74.26
56568;BME280;42456;49.956;20.004;2023-02-22T00:05:59;98271.90;;;5.14;74.71
56568;BME280;42456;49.956;20.004;2023-02-22T00:08:33;98270.89;;;5.12;74.57
56568;BME280;42456;49.956;20.004;2023-02-22T00:11:06;98277.02;;;5.08;74.78
56568;BME280;42456;49.956;20.004;2023-02-22T00:13:37;98275.29;;;5.06;74.68
56568;BME280;42456;49.956;20.004;2023-02-22T00:16:04;98272.45;;;5.04;74.82
56568;BME280;42456;49.956;20.004;2023-02-22T00:18:31;98274.39;;;5.04;74.76
56568;BME280;42456;49.956;20.004;2023-02-22T00:20:59;98277.90;;;5.04;74.87
56568;BME280;42456;49.956;20.004;2023-02-22T00:23:29;98273.20;;;5.04;75.09
56568;BME280;42456;49.956;20.004;2023-02-22T00:25:56;98274.59;;;5.04;74.95
56568;BME280;42456;49.956;20.004;2023-02-22T00:28:24;98283.31;;;5.05;75.29
56568;BME280;42456;49.956;20.004;2023-02-22T00:30:51;98280.70;;;5.06;75.46
56568;BME280;42456;49.956;20.004;2023-02-22T00:33:20;98286.26;;;5.07;75.31
56568;BME280;42456;49.956;20.004;2023-02-22T00:35:47;98284.48;;;5.08;75.40
56568;BME280;42456;49.956;20.004;2023-02-22T00:38:16;98286.27;;;5.10;75.39
56568;BME280;42456;49.956;20.004;2023-02-22T00:40:44;98288.00;;;5.11;74.77
56568;BME280;42456;49.956;20.004;2023-02-22T00:43:11;98291.61;;;5.13;74.94
56568;BME280;42456;49.956;20.004;2023-02-22T00:45:38;98297.48;;;5.14;75.36
56568;BME280;42456;49.956;20.004;2023-02-22T00:48:05;98294.02;;;5.15;75.19
56568;BME280;42456;49.956;20.004;2023-02-22T00:50:33;98292.84;;;5.16;74.85
56568;BME280;42456;49.956;20.004;2023-02-22T00:53:01;98293.20;;;5.15;74.99
56568;BME280;42456;49.956;20.004;2023-02-22T00:55:34;98295.65;;;5.16;75.15
56568;BME280;42456;49.956;20.004;2023-02-22T00:58:02;98294.21;;;5.16;74.73
56568;BME280;42456;49.956;20.004;2023-02-22T01:00:36;98293.15;;;5.16;74.70
56568;BME280;42456;49.956;20.004;2023-02-22T01:03:05;98291.92;;;5.16;74.90
56568;BME280;42456;49.956;20.004;2023-02-22T01:05:33;98294.92;;;5.15;75.24
56568;BME280;42456;49.956;20.004;2023-02-22T01:08:01;98297.59;;;5.15;75.09
56568;BME280;42456;49.956;20.004;2023-02-22T01:10:30;98295.20;;;5.14;74.95
56568;BME280;42456;49.956;20.004;2023-02-22T01:12:57;98294.79;;;5.14;74.83
56568;BME280;42456;49.956;20.004;2023-02-22T01:15:26;98295.69;;;5.14;75.27
56568;BME280;42456;49.956;20.004;2023-02-22T01:17:57;98297.89;;;5.13;74.93
56568;BME280;42456;49.956;20.004;2023-02-22T01:20:25;98299.23;;;5.13;75.22
56568;BME280;42456;49.956;20.004;2023-02-22T01:22:55;98303.72;;;5.13;74.76
56568;BME280;42456;49.956;20.004;2023-02-22T01:25:23;98302.92;;;5.12;75.30
56568;BME280;42456;49.956;20.004;2023-02-22T01:27:51;98305.29;;;5.11;75.44
56568;BME280;42456;49.956;20.004;2023-02-22T01:30:23;98301.70;;;5.10;75.33
56568;BME280;42456;49.956;20.004;2023-02-22T01:32:51;98302.61;;;5.08;75.29
56568;BME280;42456;49.956;20.004;2023-02-22T01:35:21;98301.04;;;5.07;75.62
56568;BME280;42456;49.956;20.004;2023-02-22T01:37:48;98303.91;;;5.07;75.87
56568;BME280;42456;49.956;20.004;2023-02-22T01:40:24;98304.13;;;5.07;75.51
56568;BME280;42456;49.956;20.004;2023-02-22T01:42:53;98303.88;;;5.06;75.70
56568;BME280;42456;49.956;20.004;2023-02-22T01:48:07;98299.63;;;5.04;76.02
56568;BME280;42456;49.956;20.004;2023-02-22T01:50:37;98298.27;;;5.03;76.06
56568;BME280;42456;49.956;20.004;2023-02-22T01:53:07;98296.52;;;5.02;75.84
56568;BME280;42456;49.956;20.004;2023-02-22T01:55:35;98297.98;;;5.02;76.38
56568;BME280;42456;49.956;20.004;2023-02-22T01:58:03;98298.77;;;5.01;75.95
56568;BME280;42456;49.956;20.004;2023-02-22T02:00:30;98303.47;;;5.01;75.99
56568;BME280;42456;49.956;20.004;2023-02-22T02:03:04;98299.61;;;5.00;76.06
56568;BME280;42456;49.956;20.004;2023-02-22T02:05:34;98295.77;;;5.01;76.15
56568;BME280;42456;49.956;20.004;2023-02-22T02:10:47;98291.95;;;4.99;76.15
56568;BME280;42456;49.956;20.004;2023-02-22T02:13:14;98297.70;;;4.99;76.42
56568;BME280;42456;49.956;20.004;2023-02-22T02:15:41;98293.14;;;4.98;76.32
56568;BME280;42456;49.956;20.004;2023-02-22T02:18:10;98290.90;;;4.98;76.50
56568;BME280;42456;49.956;20.004;2023-02-22T02:20:43;98291.58;;;4.98;76.24
56568;BME280;42456;49.956;20.004;2023-02-22T02:34:48;98292.89;;;4.93;76.31
56568;BME280;42456;49.956;20.004;2023-02-22T02:37:34;98291.04;;;4.93;76.43
56568;BME280;42456;49.956;20.004;2023-02-22T02:42:52;98296.46;;;4.93;76.14
56568;BME280;42456;49.956;20.004;2023-02-22T02:45:26;98297.08;;;4.94;76.25
56568;BME280;42456;49.956;20.004;2023-02-22T02:47:57;98298.83;;;4.96;76.58
56568;BME280;42456;49.956;20.004;2023-02-22T02:50:39;98299.27;;;4.97;76.17
56568;BME280;42456;49.956;20.004;2023-02-22T02:53:09;98298.52;;;4.98;76.41
56568;BME280;42456;49.956;20.004;2023-02-22T02:55:37;98302.25;;;4.98;76.70
56568;BME280;42456;49.956;20.004;2023-02-22T02:58:06;98303.32;;;4.98;76.41
56568;BME280;42456;49.956;20.004;2023-02-22T03:00:36;98306.05;;;4.97;76.59
56568;BME280;42456;49.956;20.004;2023-02-22T03:11:18;98303.47;;;4.92;76.31
56568;BME280;42456;49.956;20.004;2023-02-22T03:16:40;98304.52;;;4.87;76.13
56568;BME280;42456;49.956;20.004;2023-02-22T03:19:17;98308.70;;;4.85;76.09
56568;BME280;42456;49.956;20.004;2023-02-22T03:24:41;98312.62;;;4.83;76.46
56568;BME280;42456;49.956;20.004;2023-02-22T03:27:17;98310.47;;;4.84;76.38
56568;BME280;42456;49.956;20.004;2023-02-22T03:29:49;98313.28;;;4.84;76.30
56568;BME280;42456;49.956;20.004;2023-02-22T03:32:32;98314.73;;;4.84;76.58
56568;BME280;42456;49.956;20.004;2023-02-22T03:35:23;98314.98;;;4.85;75.90
56568;BME280;42456;49.956;20.004;2023-02-22T03:37:54;98316.53;;;4.85;76.44
56568;BME280;42456;49.956;20.004;2023-02-22T03:40:30;98316.48;;;4.85;76.19
56568;BME280;42456;49.956;20.004;2023-02-22T03:43:23;98311.84;;;4.85;75.83
56568;BME280;42456;49.956;20.004;2023-02-22T03:45:51;98316.53;;;4.85;76.24
56568;BME280;42456;49.956;20.004;2023-02-22T03:48:24;98314.58;;;4.84;76.02
56568;BME280;42456;49.956;20.004;2023-02-22T03:50:52;98315.54;;;4.84;76.13
56568;BME280;42456;49.956;20.004;2023-02-22T03:53:19;98319.73;;;4.82;76.18
56568;BME280;42456;49.956;20.004;2023-02-22T03:55:49;98319.54;;;4.81;75.79
56568;BME280;42456;49.956;20.004;2023-02-22T03:58:20;98321.05;;;4.78;75.90
56568;BME280;42456;49.956;20.004;2023-02-22T04:00:47;98325.83;;;4.76;76.47
56568;BME280;42456;49.956;20.004;2023-02-22T04:03:20;98325.94;;;4.76;76.12
56568;BME280;42456;49.956;20.004;2023-02-22T04:09:09;98323.70;;;4.76;75.81
56568;BME280;42456;49.956;20.004;2023-02-22T04:11:36;98326.45;;;4.77;76.36
56568;BME280;42456;49.956;20.004;2023-02-22T04:14:03;98327.55;;;4.79;76.03
56568;BME280;42456;49.956;20.004;2023-02-22T04:16:30;98329.25;;;4.80;76.33
56568;BME280;42456;49.956;20.004;2023-02-22T04:18:57;98326.98;;;4.82;76.38
56568;BME280;42456;49.956;20.004;2023-02-22T04:21:25;98325.90;;;4.82;76.39
56568;BME280;42456;49.956;20.004;2023-02-22T04:23:51;98326.36;;;4.83;76.35
56568;BME280;42456;49.956;20.004;2023-02-22T04:26:18;98325.64;;;4.82;76.73
56568;BME280;42456;49.956;20.004;2023-02-22T04:28:45;98329.23;;;4.81;76.05
56568;BME280;42456;49.956;20.004;2023-02-22T04:31:11;98329.40;;;4.79;76.51
56568;BME280;42456;49.956;20.004;2023-02-22T04:33:38;98330.25;;;4.77;76.43
56568;BME280;42456;49.956;20.004;2023-02-22T04:36:05;98328.98;;;4.75;76.63
56568;BME280;42456;49.956;20.004;2023-02-22T04:38:33;98326.10;;;4.72;76.90
56568;BME280;42456;49.956;20.004;2023-02-22T04:41:00;98327.67;;;4.70;76.43
56568;BME280;42456;49.956;20.004;2023-02-22T04:43:27;98324.61;;;4.65;77.01
56568;BME280;42456;49.956;20.004;2023-02-22T04:45:53;98333.06;;;4.63;77.48
56568;BME280;42456;49.956;20.004;2023-02-22T04:48:20;98334.59;;;4.60;77.20
56568;BME280;42456;49.956;20.004;2023-02-22T04:50:47;98333.66;;;4.60;77.08
56568;BME280;42456;49.956;20.004;2023-02-22T04:53:14;98331.80;;;4.58;77.48
56568;BME280;42456;49.956;20.004;2023-02-22T04:55:41;98335.73;;;4.58;77.28
56568;BME280;42456;49.956;20.004;2023-02-22T04:58:07;98339.38;;;4.58;77.54
56568;BME280;42456;49.956;20.004;2023-02-22T05:00:35;98333.77;;;4.58;77.35
56568;BME280;42456;49.956;20.004;2023-02-22T05:03:02;98334.94;;;4.59;77.62
56568;BME280;42456;49.956;20.004;2023-02-22T05:05:28;98334.56;;;4.59;77.89
56568;BME280;42456;49.956;20.004;2023-02-22T05:07:55;98332.86;;;4.58;77.53
56568;BME280;42456;49.956;20.004;2023-02-22T05:10:22;98334.48;;;4.57;77.72
56568;BME280;42456;49.956;20.004;2023-02-22T05:12:50;98332.30;;;4.57;77.91
56568;BME280;42456;49.956;20.004;2023-02-22T05:15:18;98334.08;;;4.56;77.50
56568;BME280;42456;49.956;20.004;2023-02-22T05:17:46;98330.69;;;4.54;77.61
56568;BME280;42456;49.956;20.004;2023-02-22T05:20:26;98326.73;;;4.52;78.21
56568;BME280;42456;49.956;20.004;2023-02-22T05:22:54;98328.95;;;4.49;77.92
56568;BME280;42456;49.956;20.004;2023-02-22T05:25:21;98336.07;;;4.46;77.95
56568;BME280;42456;49.956;20.004;2023-02-22T05:28:00;98332.93;;;4.42;78.20
56568;BME280;42456;49.956;20.004;2023-02-22T05:30:32;98342.27;;;4.40;78.25
56568;BME280;42456;49.956;20.004;2023-02-22T05:32:59;98344.24;;;4.37;78.52
56568;BME280;42456;49.956;20.004;2023-02-22T05:35:27;98351.76;;;4.36;78.30
56568;BME280;42456;49.956;20.004;2023-02-22T05:37:54;98349.86;;;4.34;78.54
56568;BME280;42456;49.956;20.004;2023-02-22T05:40:24;98350.30;;;4.34;78.72
56568;BME280;42456;49.956;20.004;2023-02-22T05:42:52;98349.51;;;4.34;78.75
56568;BME280;42456;49.956;20.004;2023-02-22T05:45:22;98353.05;;;4.34;78.52
56568;BME280;42456;49.956;20.004;2023-02-22T05:47:50;98352.38;;;4.35;79.14
56568;BME280;42456;49.956;20.004;2023-02-22T05:50:18;98348.00;;;4.34;79.01
56568;BME280;42456;49.956;20.004;2023-02-22T05:52:46;98355.17;;;4.34;78.71
56568;BME280;42456;49.956;20.004;2023-02-22T05:55:16;98360.73;;;4.34;78.99
56568;BME280;42456;49.956;20.004;2023-02-22T05:57:43;98361.80;;;4.33;78.97
56568;BME280;42456;49.956;20.004;2023-02-22T06:00:18;98365.64;;;4.33;79.05
56568;BME280;42456;49.956;20.004;2023-02-22T06:02:45;98370.17;;;4.32;78.96
56568;BME280;42456;49.956;20.004;2023-02-22T06:05:12;98375.80;;;4.33;78.99
56568;BME280;42456;49.956;20.004;2023-02-22T06:07:39;98375.27;;;4.33;79.25
56568;BME280;42456;49.956;20.004;2023-02-22T06:10:06;98380.48;;;4.35;79.19
56568;BME280;42456;49.956;20.004;2023-02-22T06:12:33;98384.67;;;4.35;79.09
56568;BME280;42456;49.956;20.004;2023-02-22T06:15:00;98391.06;;;4.35;79.49
56568;BME280;42456;49.956;20.004;2023-02-22T06:17:26;98391.59;;;4.35;78.93
56568;BME280;42456;49.956;20.004;2023-02-22T06:19:53;98396.57;;;4.33;78.95
56568;BME280;42456;49.956;20.004;2023-02-22T06:22:20;98395.45;;;4.34;78.84
56568;BME280;42456;49.956;20.004;2023-02-22T06:24:48;98398.16;;;4.34;79.26
56568;BME280;42456;49.956;20.004;2023-02-22T06:27:14;98402.52;;;4.35;79.42
56568;BME280;42456;49.956;20.004;2023-02-22T06:29:44;98405.71;;;4.35;79.39
56568;BME280;42456;49.956;20.004;2023-02-22T06:32:13;98409.39;;;4.35;79.40
56568;BME280;42456;49.956;20.004;2023-02-22T06:34:40;98409.54;;;4.35;79.60
56568;BME280;42456;49.956;20.004;2023-02-22T06:37:07;98410.65;;;4.36;79.55
56568;BME280;42456;49.956;20.004;2023-02-22T06:39:34;98413.03;;;4.37;79.33
56568;BME280;42456;49.956;20.004;2023-02-22T06:42:00;98411.78;;;4.39;79.52
56568;BME280;42456;49.956;20.004;2023-02-22T06:44:27;98414.89;;;4.42;79.75
56568;BME280;42456;49.956;20.004;2023-02-22T06:46:54;98418.81;;;4.43;79.53
56568;BME280;42456;49.956;20.004;2023-02-22T06:49:21;98421.08;;;4.47;79.38
56568;BME280;42456;49.956;20.004;2023-02-22T06:51:48;98417.50;;;4.50;79.87
56568;BME280;42456;49.956;20.004;2023-02-22T06:54:15;98421.23;;;4.55;79.96
56568;BME280;42456;49.956;20.004;2023-02-22T06:56:42;98423.62;;;4.59;80.08
56568;BME280;42456;49.956;20.004;2023-02-22T06:59:09;98425.10;;;4.64;80.36
56568;BME280;42456;49.956;20.004;2023-02-22T07:01:36;98422.86;;;4.69;80.46
56568;BME280;42456;49.956;20.004;2023-02-22T07:04:05;98425.48;;;4.74;80.22
56568;BME280;42456;49.956;20.004;2023-02-22T07:06:32;98424.73;;;4.79;80.12
56568;BME280;42456;49.956;20.004;2023-02-22T07:08:59;98424.41;;;4.84;80.07
56568;BME280;42456;49.956;20.004;2023-02-22T07:11:26;98424.23;;;4.88;79.90
56568;BME280;42456;49.956;20.004;2023-02-22T07:13:53;98426.24;;;4.93;79.50
56568;BME280;42456;49.956;20.004;2023-02-22T07:16:21;98426.81;;;4.98;79.32
56568;BME280;42456;49.956;20.004;2023-02-22T07:18:47;98421.05;;;5.03;79.28
56568;BME280;42456;49.956;20.004;2023-02-22T07:21:14;98426.39;;;5.09;79.56
56568;BME280;42456;49.956;20.004;2023-02-22T07:23:45;98430.25;;;5.15;79.09
56568;BME280;42456;49.956;20.004;2023-02-22T07:26:15;98430.90;;;5.20;78.84
56568;BME280;42456;49.956;20.004;2023-02-22T07:28:42;98435.15;;;5.25;79.40
56568;BME280;42456;49.956;20.004;2023-02-22T07:31:08;98436.04;;;5.30;78.88
56568;BME280;42456;49.956;20.004;2023-02-22T07:33:35;98432.10;;;5.33;78.32
56568;BME280;42456;49.956;20.004;2023-02-22T07:36:02;98432.79;;;5.36;78.27
56568;BME280;42456;49.956;20.004;2023-02-22T07:38:28;98432.85;;;5.39;78.29
56568;BME280;42456;49.956;20.004;2023-02-22T07:40:55;98429.82;;;5.41;78.17
56568;BME280;42456;49.956;20.004;2023-02-22T07:43:24;98429.98;;;5.44;77.84
56568;BME280;42456;49.956;20.004;2023-02-22T07:45:55;98431.28;;;5.47;78.51
56568;BME280;42456;49.956;20.004;2023-02-22T07:48:25;98431.88;;;5.49;78.15
56568;BME280;42456;49.956;20.004;2023-02-22T07:50:53;98433.52;;;5.52;78.02
56568;BME280;42456;49.956;20.004;2023-02-22T07:53:26;98430.94;;;5.55;78.49
56568;BME280;42456;49.956;20.004;2023-02-22T07:56:00;98433.04;;;5.60;77.81
56568;BME280;42456;49.956;20.004;2023-02-22T07:58:29;98433.24;;;5.63;77.67
56568;BME280;42456;49.956;20.004;2023-02-22T08:00:57;98430.98;;;5.68;77.92
56568;BME280;42456;49.956;20.004;2023-02-22T08:03:25;98431.47;;;5.73;77.17
56568;BME280;42456;49.956;20.004;2023-02-22T08:05:54;98433.02;;;5.80;76.94
56568;BME280;42456;49.956;20.004;2023-02-22T08:08:22;98437.45;;;5.88;76.84
56568;BME280;42456;49.956;20.004;2023-02-22T08:10:50;98433.90;;;5.95;76.92
56568;BME280;42456;49.956;20.004;2023-02-22T08:13:18;98436.61;;;6.02;76.52
56568;BME280;42456;49.956;20.004;2023-02-22T08:15:45;98436.93;;;6.10;76.24
56568;BME280;42456;49.956;20.004;2023-02-22T08:18:17;98440.89;;;6.18;76.26
56568;BME280;42456;49.956;20.004;2023-02-22T08:20:46;98441.84;;;6.25;75.81
56568;BME280;42456;49.956;20.004;2023-02-22T08:23:14;98443.23;;;6.33;75.43
56568;BME280;42456;49.956;20.004;2023-02-22T08:25:41;98439.35;;;6.38;75.12
56568;BME280;42456;49.956;20.004;2023-02-22T08:28:10;98441.52;;;6.44;74.81
56568;BME280;42456;49.956;20.004;2023-02-22T08:30:39;98436.14;;;6.49;74.74
56568;BME280;42456;49.956;20.004;2023-02-22T08:33:10;98438.77;;;6.55;74.37
56568;BME280;42456;49.956;20.004;2023-02-22T08:35:40;98438.65;;;6.61;74.31
56568;BME280;42456;49.956;20.004;2023-02-22T08:38:14;98439.98;;;6.66;73.86
56568;BME280;42456;49.956;20.004;2023-02-22T08:40:41;98439.65;;;6.70;73.13
56568;BME280;42456;49.956;20.004;2023-02-22T08:43:08;98446.94;;;6.69;72.56
56568;BME280;42456;49.956;20.004;2023-02-22T08:45:35;98446.40;;;6.71;72.48
56568;BME280;42456;49.956;20.004;2023-02-22T08:48:01;98441.59;;;6.74;72.40
56568;BME280;42456;49.956;20.004;2023-02-22T08:50:31;98443.76;;;6.78;72.16
56568;BME280;42456;49.956;20.004;2023-02-22T08:53:03;98444.90;;;6.84;72.07
56568;BME280;42456;49.956;20.004;2023-02-22T08:55:34;98445.31;;;6.92;71.71
56568;BME280;42456;49.956;20.004;2023-02-22T08:58:03;98449.66;;;6.99;71.48
56568;BME280;42456;49.956;20.004;2023-02-22T09:00:32;98445.68;;;7.07;71.28
56568;BME280;42456;49.956;20.004;2023-02-22T09:03:01;98451.55;;;7.14;71.33
56568;BME280;42456;49.956;20.004;2023-02-22T09:05:29;98447.02;;;7.21;70.91
56568;BME280;42456;49.956;20.004;2023-02-22T09:07:57;98445.88;;;7.28;70.54
56568;BME280;42456;49.956;20.004;2023-02-22T09:10:28;98445.88;;;7.38;70.52
56568;BME280;42456;49.956;20.004;2023-02-22T09:12:56;98447.51;;;7.46;69.57
56568;BME280;42456;49.956;20.004;2023-02-22T09:15:24;98451.59;;;7.50;69.31
56568;BME280;42456;49.956;20.004;2023-02-22T09:17:52;98454.05;;;7.54;68.50
56568;BME280;42456;49.956;20.004;2023-02-22T09:20:20;98454.73;;;7.57;68.16
56568;BME280;42456;49.956;20.004;2023-02-22T09:22:48;98455.33;;;7.61;68.06
56568;BME280;42456;49.956;20.004;2023-02-22T09:25:16;98456.98;;;7.66;67.76
56568;BME280;42456;49.956;20.004;2023-02-22T09:27:52;98455.71;;;7.73;67.19
56568;BME280;42456;49.956;20.004;2023-02-22T09:32:53;98453.21;;;7.88;66.44
56568;BME280;42456;49.956;20.004;2023-02-22T09:35:22;98450.65;;;7.94;66.18
56568;BME280;42456;49.956;20.004;2023-02-22T09:37:57;98455.89;;;8.02;66.01
56568;BME280;42456;49.956;20.004;2023-02-22T09:40:26;98456.09;;;8.11;65.80
56568;BME280;42456;49.956;20.004;2023-02-22T09:46:03;98449.80;;;8.04;62.67
56568;BME280;42456;49.956;20.004;2023-02-22T09:48:26;98450.18;;;8.02;63.68
56568;BME280;42456;49.956;20.004;2023-02-22T09:50:56;98445.70;;;8.07;64.07
56568;BME280;42456;49.956;20.004;2023-02-22T09:53:37;98444.36;;;8.13;64.45
56568;BME280;42456;49.956;20.004;2023-02-22T09:56:10;98450.23;;;8.18;63.30
56568;BME280;42456;49.956;20.004;2023-02-22T09:58:39;98447.55;;;8.22;63.41
56568;BME280;42456;49.956;20.004;2023-02-22T10:06:34;98447.34;;;8.44;63.28
56568;BME280;42456;49.956;20.004;2023-02-22T10:09:03;98447.11;;;8.47;62.67
56568;BME280;42456;49.956;20.004;2023-02-22T10:11:51;98443.49;;;8.52;62.50
56568;BME280;42456;49.956;20.004;2023-02-22T10:17:14;98434.02;;;8.66;62.51
56568;BME280;42456;49.956;20.004;2023-02-22T10:23:01;98433.63;;;8.63;61.03
56568;BME280;42456;49.956;20.004;2023-02-22T10:25:34;98433.10;;;8.66;61.29
56568;BME280;42456;49.956;20.004;2023-02-22T10:30:42;98431.99;;;8.82;61.82
56568;BME280;42456;49.956;20.004;2023-02-22T10:33:16;98425.67;;;8.91;61.64
56568;BME280;42456;49.956;20.004;2023-02-22T10:35:45;98419.34;;;8.96;61.74
56568;BME280;42456;49.956;20.004;2023-02-22T10:38:17;98419.15;;;9.02;60.97
56568;BME280;42456;49.956;20.004;2023-02-22T10:40:53;98419.69;;;9.07;61.01
56568;BME280;42456;49.956;20.004;2023-02-22T10:43:22;98415.34;;;9.13;61.12
56568;BME280;42456;49.956;20.004;2023-02-22T10:45:57;98412.77;;;9.14;60.11
56568;BME280;42456;49.956;20.004;2023-02-22T10:48:28;98415.55;;;9.16;59.87
56568;BME280;42456;49.956;20.004;2023-02-22T10:51:02;98408.00;;;9.19;59.57
56568;BME280;42456;49.956;20.004;2023-02-22T10:53:31;98410.92;;;9.17;58.47
56568;BME280;42456;49.956;20.004;2023-02-22T10:58:50;98411.26;;;9.14;58.93
56568;BME280;42456;49.956;20.004;2023-02-22T11:04:13;98412.67;;;9.12;58.55
56568;BME280;42456;49.956;20.004;2023-02-22T11:06:46;98414.35;;;9.10;58.36
56568;BME280;42456;49.956;20.004;2023-02-22T11:09:19;98417.14;;;9.12;58.40
56568;BME280;42456;49.956;20.004;2023-02-22T11:12:14;98411.17;;;9.12;58.09
56568;BME280;42456;49.956;20.004;2023-02-22T11:14:42;98410.95;;;9.11;57.87
56568;BME280;42456;49.956;20.004;2023-02-22T11:17:09;98411.86;;;9.12;58.02
56568;BME280;42456;49.956;20.004;2023-02-22T11:19:45;98410.80;;;9.16;57.95
56568;BME280;42456;49.956;20.004;2023-02-22T11:22:20;98407.32;;;9.20;57.44
56568;BME280;42456;49.956;20.004;2023-02-22T11:24:51;98404.92;;;9.27;57.81
56568;BME280;42456;49.956;20.004;2023-02-22T11:27:28;98397.55;;;9.27;57.40
56568;BME280;42456;49.956;20.004;2023-02-22T11:35:59;98400.27;;;9.41;57.70
56568;BME280;42456;49.956;20.004;2023-02-22T11:38:38;98398.66;;;9.33;55.79
56568;BME280;42456;49.956;20.004;2023-02-22T11:41:17;98400.40;;;9.25;55.87
56568;BME280;42456;49.956;20.004;2023-02-22T11:43:50;98401.89;;;9.21;56.12
56568;BME280;42456;49.956;20.004;2023-02-22T11:46:22;98407.83;;;9.20;56.39
56568;BME280;42456;49.956;20.004;2023-02-22T11:49:04;98403.85;;;9.25;56.61
56568;BME280;42456;49.956;20.004;2023-02-22T11:51:47;98401.60;;;9.26;55.56
56568;BME280;42456;49.956;20.004;2023-02-22T11:56:52;98406.34;;;9.22;56.14
56568;BME280;42456;49.956;20.004;2023-02-22T11:59:37;98403.46;;;9.28;56.37
56568;BME280;42456;49.956;20.004;2023-02-22T12:02:54;98395.41;;;9.33;55.97
56568;BME280;42456;49.956;20.004;2023-02-22T12:19:34;98392.83;;;9.19;55.66
56568;BME280;42456;49.956;20.004;2023-02-22T12:22:20;98386.96;;;9.21;55.70
56568;BME280;42456;49.956;20.004;2023-02-22T12:27:55;98388.94;;;9.28;56.11
56568;BME280;42456;49.956;20.004;2023-02-22T12:30:28;98386.61;;;9.18;54.70
56568;BME280;42456;49.956;20.004;2023-02-22T12:32:59;98383.52;;;9.02;54.44
56568;BME280;42456;49.956;20.004;2023-02-22T12:35:34;98382.91;;;8.89;54.92
56568;BME280;42456;49.956;20.004;2023-02-22T12:38:12;98375.24;;;8.89;55.70
56568;BME280;42456;49.956;20.004;2023-02-22T12:40:53;98372.38;;;8.98;55.74
56568;BME280;42456;49.956;20.004;2023-02-22T12:43:37;98371.36;;;9.07;55.42
56568;BME280;42456;49.956;20.004;2023-02-22T12:46:19;98374.36;;;9.05;55.37
56568;BME280;42456;49.956;20.004;2023-02-22T12:49:07;98374.52;;;9.05;55.68
56568;BME280;42456;49.956;20.004;2023-02-22T12:51:55;98375.02;;;9.03;55.57
56568;BME280;42456;49.956;20.004;2023-02-22T12:57:17;98372.86;;;9.06;55.49
56568;BME280;42456;49.956;20.004;2023-02-22T12:59:52;98374.90;;;9.09;55.61
56568;BME280;42456;49.956;20.004;2023-02-22T13:05:13;98380.33;;;9.15;55.96
56568;BME280;42456;49.956;20.004;2023-02-22T13:10:26;98375.88;;;9.15;55.48
56568;BME280;42456;49.956;20.004;2023-02-22T13:15:50;98377.94;;;9.11;55.14
56568;BME280;42456;49.956;20.004;2023-02-22T13:18:37;98375.59;;;9.07;54.47
56568;BME280;42456;49.956;20.004;2023-02-22T13:23:53;98374.23;;;9.06;54.67
56568;BME280;42456;49.956;20.004;2023-02-22T13:26:39;98377.80;;;9.08;54.89
56568;BME280;42456;49.956;20.004;2023-02-22T13:29:37;98381.39;;;9.12;55.28
56568;BME280;42456;49.956;20.004;2023-02-22T13:49:04;98379.60;;;9.02;54.55
56568;BME280;42456;49.956;20.004;2023-02-22T13:51:49;98379.52;;;8.97;54.04
56568;BME280;42456;49.956;20.004;2023-02-22T13:54:28;98382.69;;;8.88;54.01
56568;BME280;42456;49.956;20.004;2023-02-22T13:57:00;98385.30;;;8.79;54.80
56568;BME280;42456;49.956;20.004;2023-02-22T13:59:34;98383.02;;;8.78;54.72
56568;BME280;42456;49.956;20.004;2023-02-22T14:02:04;98384.29;;;8.76;54.91
56568;BME280;42456;49.956;20.004;2023-02-22T14:04:39;98383.40;;;8.73;54.72
56568;BME280;42456;49.956;20.004;2023-02-22T14:09:50;98382.98;;;8.60;54.85
56568;BME280;42456;49.956;20.004;2023-02-22T14:12:46;98381.94;;;8.52;53.53
56568;BME280;42456;49.956;20.004;2023-02-22T14:15:16;98388.23;;;8.33;53.20
56568;BME280;42456;49.956;20.004;2023-02-22T14:18:02;98388.39;;;8.21;53.99
56568;BME280;42456;49.956;20.004;2023-02-22T14:20:33;98386.56;;;8.15;54.78
56568;BME280;42456;49.956;20.004;2023-02-22T14:32:11;98383.84;;;7.95;55.28
56568;BME280;42456;49.956;20.004;2023-02-22T14:34:21;98387.48;;;7.95;55.06
56568;BME280;42456;49.956;20.004;2023-02-22T14:37:15;98386.65;;;7.93;55.02
56568;BME280;42456;49.956;20.004;2023-02-22T14:42:42;98386.58;;;7.84;55.40
56568;BME280;42456;49.956;20.004;2023-02-22T14:45:24;98386.16;;;7.82;55.20
56568;BME280;42456;49.956;20.004;2023-02-22T14:50:47;98385.54;;;7.79;55.36
56568;BME280;42456;49.956;20.004;2023-02-22T14:56:15;98387.57;;;7.67;55.13
56568;BME280;42456;49.956;20.004;2023-02-22T15:01:47;98392.70;;;7.55;55.57
56568;BME280;42456;49.956;20.004;2023-02-22T15:04:34;98392.59;;;7.53;56.53
56568;BME280;42456;49.956;20.004;2023-02-22T15:07:21;98388.99;;;7.53;56.48
56568;BME280;42456;49.956;20.004;2023-02-22T15:10:50;98391.61;;;7.49;56.14
56568;BME280;42456;49.956;20.004;2023-02-22T15:13:02;98392.48;;;7.42;55.71
56568;BME280;42456;49.956;20.004;2023-02-22T15:15:38;98390.27;;;7.36;55.82
56568;BME280;42456;49.956;20.004;2023-02-22T15:18:15;98392.73;;;7.29;55.50
56568;BME280;42456;49.956;20.004;2023-02-22T15:20:43;98390.64;;;7.21;55.89
56568;BME280;42456;49.956;20.004;2023-02-22T15:23:14;98391.23;;;7.14;55.93
56568;BME280;42456;49.956;20.004;2023-02-22T15:25:46;98390.20;;;7.08;56.20
56568;BME280;42456;49.956;20.004;2023-02-22T15:28:16;98393.92;;;7.04;56.15
56568;BME280;42456;49.956;20.004;2023-02-22T15:30:44;98390.67;;;6.99;55.75
56568;BME280;42456;49.956;20.004;2023-02-22T15:33:17;98388.61;;;6.93;55.98
56568;BME280;42456;49.956;20.004;2023-02-22T15:35:58;98387.52;;;6.87;56.28
56568;BME280;42456;49.956;20.004;2023-02-22T15:38:29;98391.49;;;6.81;56.42
56568;BME280;42456;49.956;20.004;2023-02-22T15:41:04;98391.05;;;6.76;56.51
56568;BME280;42456;49.956;20.004;2023-02-22T15:43:31;98391.97;;;6.70;56.93